Stations météo

réclame
Mon MeteoGroup
Lycksele, Suède (2262): Température de l'air & dewpoint: 11.07.2018 13:00:00 - 17.07.2018 13:00:00 (CEST)Lycksele, Suède (2262): Vitesse du vent: 11.07.2018 13:00:00 - 17.07.2018 13:00:00 (CEST)Lycksele, Suède (2262): Direction du vent: 11.07.2018 13:00:00 - 17.07.2018 13:00:00 (CEST)Lycksele, Suède (2262): visibility: 11.07.2018 13:00:00 - 17.07.2018 13:00:00 (CEST)
Date & Time tt [°C] td [°C] ff [km/h] ff [knt] dd vv [km]
17.07.2018 13:00:00 31,0 9,0 9 5 S 10
17.07.2018 12:00:00 29,0 9,0 8 4 ENE 10
17.07.2018 11:00:00 30,0 8,0 5 3 - 10
17.07.2018 10:00:00 28,0 10,0 4 2 - 10
17.07.2018 09:00:00 26,0 11,0 4 2 - 10
17.07.2018 08:00:00 23,0 13,0 4 2 - 10
17.07.2018 07:00:00 20,0 13,0 0 0 N 10
17.07.2018 06:00:00 19,0 13,0 0 0 N 10
17.07.2018 05:00:00 14,0 11,0 0 0 N 10
17.07.2018 04:00:00 12,0 10,0 0 0 N 10
17.07.2018 03:00:00 13,0 11,0 0 0 N 10
17.07.2018 02:00:00 14,0 12,0 0 0 N 10
17.07.2018 01:00:00 16,0 12,0 5 3 SSE 10
17.07.2018 00:00:00 18,0 13,0 5 3 SSE 10
16.07.2018 23:00:00 19,0 14,0 4 2 - 10
16.07.2018 22:00:00 24,0 16,0 4 2 - 10
16.07.2018 21:00:00 26,0 15,0 0 0 N 10
16.07.2018 20:00:00 28,0 11,0 5 3 SSE 10
16.07.2018 19:00:00 30,0 10,0 5 3 - 10
16.07.2018 18:00:00 - - - - - -
16.07.2018 17:00:00 30,0 10,0 9 5 E 10
16.07.2018 16:00:00 29,0 10,0 9 5 E 10
16.07.2018 15:00:00 29,0 10,0 8 4 E 10
16.07.2018 14:00:00 28,0 10,0 8 4 E 10
16.07.2018 13:00:00 27,0 10,0 8 4 - 10
16.07.2018 12:00:00 25,0 10,0 8 4 NE 10
16.07.2018 11:00:00 24,0 10,0 5 3 E 10
16.07.2018 10:00:00 23,0 10,0 8 4 NE 10
16.07.2018 09:00:00 22,0 10,0 5 3 - 10
16.07.2018 08:00:00 20,0 11,0 4 2 - 10
16.07.2018 07:00:00 18,0 11,0 2 1 - 10
16.07.2018 06:00:00 17,0 10,0 0 0 N 10
16.07.2018 05:00:00 11,0 9,0 0 0 N 10
16.07.2018 04:00:00 8,0 7,0 4 2 WNW 10
16.07.2018 03:00:00 9,0 7,0 0 0 N 10
16.07.2018 02:00:00 10,0 8,0 0 0 N 10
16.07.2018 01:00:00 11,0 9,0 0 0 N 10
16.07.2018 00:00:00 13,0 9,0 0 0 N 10
15.07.2018 23:00:00 15,0 10,0 5 3 WSW 10
15.07.2018 22:00:00 19,0 9,0 9 5 WNW 10
15.07.2018 21:00:00 23,0 9,0 8 4 W 10
15.07.2018 20:00:00 23,0 7,0 15 8 WNW 10
15.07.2018 19:00:00 25,0 6,0 15 8 W 10
15.07.2018 18:00:00 25,0 6,0 21 11 WNW 10
15.07.2018 17:00:00 26,0 6,0 21 11 W 10
15.07.2018 16:00:00 26,0 8,0 13 7 WNW 10
15.07.2018 15:00:00 26,0 8,0 13 7 W 10
15.07.2018 14:00:00 25,0 11,0 13 7 NW 10
15.07.2018 13:00:00 26,0 11,0 9 5 - 10
15.07.2018 12:00:00 25,0 10,0 11 6 W 10
15.07.2018 11:00:00 24,0 11,0 8 4 NW 10
15.07.2018 10:00:00 23,0 11,0 9 5 N 10
15.07.2018 09:00:00 21,0 12,0 8 4 WNW 10
15.07.2018 08:00:00 21,0 11,0 5 3 NW 10
15.07.2018 07:00:00 19,0 11,0 0 0 N 10
15.07.2018 06:00:00 15,0 12,0 0 0 N 10
15.07.2018 05:00:00 12,0 10,0 4 2 - 10
15.07.2018 04:00:00 9,0 8,0 0 0 N 10
15.07.2018 03:00:00 10,0 8,0 0 0 N 10
15.07.2018 02:00:00 11,0 9,0 0 0 N 10
15.07.2018 01:00:00 12,0 10,0 0 0 N 10
15.07.2018 00:00:00 14,0 11,0 4 2 SW 10
14.07.2018 23:00:00 16,0 12,0 0 0 N 10
14.07.2018 22:00:00 20,0 13,0 0 0 N 10
14.07.2018 21:00:00 25,0 11,0 5 3 WSW 10
14.07.2018 20:00:00 26,0 7,0 11 6 W 10
14.07.2018 19:00:00 27,0 7,0 9 5 SW 10
14.07.2018 18:00:00 26,0 6,0 15 8 WNW 10
14.07.2018 17:00:00 27,0 6,0 13 7 W 10
14.07.2018 16:00:00 27,0 5,0 15 8 W 10
14.07.2018 15:00:00 27,0 6,0 9 5 SW 10
14.07.2018 14:00:00 26,0 7,0 13 7 W 10
14.07.2018 13:00:00 26,0 9,0 9 5 W 10
14.07.2018 12:00:00 25,0 9,0 8 4 - 10
14.07.2018 11:00:00 23,0 11,0 8 4 E 10
14.07.2018 10:00:00 22,0 12,0 8 4 E 10
14.07.2018 09:00:00 20,0 12,0 5 3 ENE 10
14.07.2018 08:00:00 18,0 12,0 2 1 E 10
14.07.2018 07:00:00 16,0 12,0 0 0 N 10
14.07.2018 06:00:00 13,0 12,0 0 0 N 10
14.07.2018 05:00:00 9,0 8,0 0 0 N 10
14.07.2018 04:00:00 8,0 7,0 0 0 N 2,8
14.07.2018 03:00:00 8,0 7,0 0 0 N 8
14.07.2018 02:00:00 9,0 8,0 0 0 N 4,4
14.07.2018 01:00:00 11,0 9,0 0 0 N 4,8
14.07.2018 00:00:00 12,0 10,0 0 0 N 1,0
13.07.2018 23:00:00 13,0 12,0 0 0 N 2,4
13.07.2018 22:00:00 16,0 14,0 0 0 N 10
13.07.2018 21:00:00 16,0 14,0 0 0 N 10
13.07.2018 20:00:00 16,0 14,0 2 1 - 4,9
13.07.2018 19:00:00 20,0 10,0 5 3 S 10
13.07.2018 18:00:00 21,0 10,0 5 3 S 10
13.07.2018 17:00:00 20,0 12,0 5 3 SSE 10
13.07.2018 16:00:00 17,0 13,0 8 4 SSW 10
13.07.2018 15:00:00 19,0 10,0 11 6 S 10
13.07.2018 14:00:00 19,0 9,0 16 9 WSW 10
13.07.2018 13:00:00 23,0 9,0 8 4 SE 10
13.07.2018 12:00:00 24,0 9,0 9 5 ESE 10
13.07.2018 11:00:00 22,0 11,0 9 5 ESE 10
13.07.2018 10:00:00 20,0 11,0 11 6 ESE 10
13.07.2018 09:00:00 19,0 10,0 13 7 ESE 10
13.07.2018 08:00:00 19,0 10,0 9 5 E 10
13.07.2018 07:00:00 16,0 10,0 8 4 SE 10
13.07.2018 06:00:00 12,0 9,0 0 0 N 10
13.07.2018 05:00:00 12,0 8,0 4 2 SSW 10
13.07.2018 04:00:00 13,0 9,0 8 4 SE 10
13.07.2018 03:00:00 11,0 8,0 8 4 SE 10
13.07.2018 02:00:00 13,0 8,0 5 3 SSE 10
13.07.2018 01:00:00 14,0 9,0 8 4 SSE 10
13.07.2018 00:00:00 16,0 9,0 9 5 SE 10
12.07.2018 23:00:00 16,0 9,0 8 4 SE 10
12.07.2018 22:00:00 21,0 9,0 9 5 SE 10
12.07.2018 21:00:00 23,0 8,0 8 4 SSE 10
12.07.2018 20:00:00 24,0 7,0 13 7 SSE 10
12.07.2018 19:00:00 26,0 6,0 16 9 ESE 10
12.07.2018 18:00:00 26,0 5,0 9 5 SSE 10
12.07.2018 17:00:00 26,0 5,0 13 7 SSE 10
12.07.2018 16:00:00 26,0 6,0 16 9 SSE 10
12.07.2018 15:00:00 26,0 3,0 5 3 ESE 10
12.07.2018 14:00:00 26,0 5,0 5 3 S 10
12.07.2018 13:00:00 27,0 6,0 9 5 - 10
12.07.2018 12:00:00 25,0 4,0 8 4 E 10
12.07.2018 11:00:00 25,0 5,0 8 4 SE 10
12.07.2018 10:00:00 24,0 4,0 8 4 SSE 10
12.07.2018 09:00:00 23,0 7,0 4 2 - 10
12.07.2018 08:00:00 20,0 8,0 0 0 N 10
12.07.2018 07:00:00 18,0 9,0 0 0 N 10
12.07.2018 06:00:00 15,0 9,0 0 0 N 10
12.07.2018 05:00:00 11,0 7,0 0 0 N 10
12.07.2018 04:00:00 8,0 6,0 2 1 - 10
12.07.2018 03:00:00 8,0 5,0 2 1 S 10
12.07.2018 02:00:00 9,0 6,0 8 4 SE 10
12.07.2018 01:00:00 11,0 7,0 0 0 N 10
12.07.2018 00:00:00 13,0 7,0 0 0 N 10
11.07.2018 23:00:00 16,0 7,0 5 3 - 10
11.07.2018 22:00:00 22,0 5,0 11 6 ESE 10
11.07.2018 21:00:00 24,0 5,0 15 8 ESE 10
11.07.2018 20:00:00 26,0 4,0 18 10 E 10
11.07.2018 19:00:00 27,0 4,0 13 7 SE 10
11.07.2018 18:00:00 - - - - - -
11.07.2018 17:00:00 28,0 5,0 13 7 SE 10
11.07.2018 16:00:00 27,0 4,0 15 8 SE 10
11.07.2018 15:00:00 27,0 4,0 13 7 SE 10
11.07.2018 14:00:00 27,0 5,0 13 7 ESE 10
11.07.2018 13:00:00 27,0 5,0 16 9 SE 10

tt = Température de l'air
td = dewpoint
ff = Vitesse du vent
dd = Direction du vent
vv = visibility

stations d'obs. à proximité